createdAt,value
2019-04-20T00:01:35.634Z,18.43
2019-04-20T00:04:41.136Z,18.10
2019-04-20T00:07:45.919Z,17.07
2019-04-20T00:10:56.932Z,16.73
2019-04-20T00:14:04.079Z,18.07
2019-04-20T00:17:03.028Z,16.80
2019-04-20T00:20:13.337Z,15.97
2019-04-20T00:23:42.063Z,15.67
2019-04-20T00:27:08.826Z,15.20
2019-04-20T00:30:06.752Z,14.57
2019-04-20T00:33:07.776Z,13.63
2019-04-20T00:36:03.328Z,14.40
2019-04-20T00:39:11.410Z,13.63
2019-04-20T00:42:17.627Z,14.17
2019-04-20T00:45:25.733Z,13.77
2019-04-20T00:48:37.503Z,14.63
2019-04-20T00:51:50.988Z,13.77
2019-04-20T00:54:39.094Z,14.70
2019-04-20T00:57:50.015Z,14.33
2019-04-20T01:01:17.197Z,13.93
2019-04-20T01:04:15.288Z,13.33
2019-04-20T01:07:24.341Z,14.40
2019-04-20T01:10:19.408Z,14.87
2019-04-20T01:13:26.397Z,14.33
2019-04-20T01:16:38.614Z,14.60
2019-04-20T01:19:35.772Z,14.00
2019-04-20T01:22:51.015Z,13.30
2019-04-20T01:25:51.989Z,14.77
2019-04-20T01:29:06.631Z,14.37
2019-04-20T01:32:14.169Z,13.97
2019-04-20T01:35:22.870Z,13.97
2019-04-20T01:38:29.539Z,14.07
2019-04-20T01:41:16.361Z,14.87
2019-04-20T01:44:27.040Z,13.80
2019-04-20T01:47:32.352Z,14.50
2019-04-20T01:50:35.325Z,14.80
2019-04-20T01:53:59.991Z,15.07
2019-04-20T01:57:08.317Z,14.20
2019-04-20T02:00:28.400Z,14.50
2019-04-20T02:03:53.707Z,15.47
2019-04-20T02:07:00.434Z,16.23
2019-04-20T02:10:06.568Z,16.17
2019-04-20T02:13:10.757Z,15.85
2019-04-20T02:16:24.388Z,16.77
2019-04-20T02:19:34.640Z,15.97
2019-04-20T02:22:44.712Z,15.90
2019-04-20T02:25:34.044Z,15.63
2019-04-20T02:29:07.738Z,16.40
2019-04-20T02:39:22.118Z,14.53
2019-04-20T02:42:19.710Z,15.10
2019-04-20T02:45:29.928Z,14.10
2019-04-20T02:48:21.700Z,14.77
2019-04-20T02:51:33.127Z,13.87
2019-04-20T02:54:53.544Z,15.20
2019-04-20T02:57:47.329Z,15.00
2019-04-20T03:00:43.262Z,15.80
2019-04-20T03:03:33.024Z,14.93
2019-04-20T03:06:42.300Z,15.30
2019-04-20T03:09:58.668Z,15.77
2019-04-20T03:13:05.372Z,14.27
2019-04-20T03:16:09.104Z,15.73
2019-04-20T03:19:11.775Z,14.73
2019-04-20T03:23:00.958Z,14.73
2019-04-20T03:25:48.385Z,16.57
2019-04-20T03:29:01.323Z,15.93
2019-04-20T03:38:26.193Z,15.03
2019-04-20T03:41:22.441Z,13.40
2019-04-20T03:44:25.566Z,14.00
2019-04-20T03:47:35.885Z,13.33
2019-04-20T03:50:50.796Z,12.33
2019-04-20T03:54:08.510Z,12.10
2019-04-20T03:57:27.630Z,13.07
2019-04-20T04:00:50.388Z,11.50
2019-04-20T04:04:21.452Z,10.47
2019-04-20T04:07:17.631Z,10.77
2019-04-20T04:10:26.578Z,10.20
2019-04-20T04:13:20.945Z,10.70
2019-04-20T04:16:34.154Z,9.80
2019-04-20T04:19:35.354Z,9.03
2019-04-20T04:22:50.036Z,8.97
2019-04-20T04:26:00.692Z,8.27
2019-04-20T04:29:15.202Z,8.47
2019-04-20T04:32:23.574Z,8.63
2019-04-20T04:35:14.181Z,8.60
2019-04-20T04:38:32.706Z,8.50
2019-04-20T04:41:32.038Z,9.17
2019-04-20T04:44:35.448Z,8.93
2019-04-20T04:47:26.273Z,9.97
2019-04-20T04:50:31.852Z,10.70
2019-04-20T04:53:50.037Z,11.67
2019-04-20T04:56:44.173Z,11.33
2019-04-20T04:59:48.723Z,13.10
2019-04-20T05:02:58.543Z,12.40
2019-04-20T05:06:29.880Z,12.87
2019-04-20T05:09:25.452Z,13.53
2019-04-20T05:12:33.053Z,14.57
2019-04-20T05:15:49.022Z,14.23
2019-04-20T05:19:03.082Z,13.90
2019-04-20T05:22:17.773Z,14.93
2019-04-20T05:25:31.107Z,15.67
2019-04-20T05:28:33.600Z,15.40
2019-04-20T05:31:34.890Z,15.60
2019-04-20T05:35:02.446Z,16.37
2019-04-20T05:38:06.825Z,15.10
2019-04-20T05:41:07.032Z,16.63
2019-04-20T05:44:39.007Z,14.40
2019-04-20T05:47:38.754Z,15.60
2019-04-20T05:50:42.469Z,16.03
2019-04-20T05:53:50.115Z,15.13
2019-04-20T05:57:00.598Z,15.43
2019-04-20T06:00:07.100Z,15.63
2019-04-20T06:03:06.042Z,15.63
2019-04-20T06:06:15.456Z,16.20
2019-04-20T06:12:33.125Z,17.37
2019-04-20T06:15:53.853Z,16.17
2019-04-20T06:19:15.184Z,17.03
2019-04-20T06:22:21.040Z,17.73
2019-04-20T06:25:39.493Z,16.63
2019-04-20T06:28:25.848Z,17.17
2019-04-20T06:31:36.096Z,16.33
2019-04-20T06:34:40.107Z,16.70
2019-04-20T06:37:53.796Z,18.10
2019-04-20T06:40:59.381Z,16.93
2019-04-20T06:44:02.264Z,18.90
2019-04-20T06:50:08.652Z,17.90
2019-04-20T06:53:45.301Z,19.17
2019-04-20T06:56:48.591Z,18.57
2019-04-20T06:59:47.661Z,19.83
2019-04-20T07:02:53.972Z,19.13
2019-04-20T07:06:22.827Z,18.60
2019-04-20T07:09:19.930Z,20.93
2019-04-20T07:12:11.367Z,21.07
2019-04-20T07:15:21.383Z,20.47
2019-04-20T07:18:31.281Z,20.03
2019-04-20T07:22:06.012Z,20.60
2019-04-20T07:28:05.855Z,21.13
2019-04-20T07:31:06.808Z,19.80
2019-04-20T07:34:15.683Z,20.77
2019-04-20T07:40:35.982Z,20.93
2019-04-20T07:43:57.383Z,21.87
2019-04-20T07:47:08.960Z,21.53
2019-04-20T07:49:51.104Z,20.73
2019-04-20T07:52:51.180Z,21.33
2019-04-20T07:56:06.066Z,21.13
2019-04-20T07:58:57.122Z,21.83
2019-04-20T08:02:42.501Z,23.20
2019-04-20T08:05:36.333Z,22.13
2019-04-20T08:08:49.425Z,22.10
2019-04-20T08:12:02.746Z,21.67
2019-04-20T08:15:11.067Z,22.97
2019-04-20T08:18:07.674Z,21.27
2019-04-20T08:21:16.734Z,21.97
2019-04-20T08:24:17.016Z,22.20
2019-04-20T08:27:13.136Z,23.23
2019-04-20T08:30:46.585Z,22.97
2019-04-20T08:34:07.422Z,23.53
2019-04-20T08:37:01.023Z,23.43
2019-04-20T08:40:12.056Z,21.73
2019-04-20T08:43:34.919Z,21.67
2019-04-20T08:46:23.393Z,21.53
2019-04-20T08:49:31.065Z,19.63
2019-04-20T08:52:59.589Z,19.50
2019-04-20T08:55:33.497Z,18.77
2019-04-20T08:58:24.915Z,19.10
2019-04-20T09:01:32.749Z,17.57
2019-04-20T09:04:46.081Z,18.93
2019-04-20T09:07:53.574Z,17.30
2019-04-20T09:11:09.919Z,15.90
2019-04-20T09:14:14.358Z,15.73
2019-04-20T09:17:32.383Z,13.60
2019-04-20T09:20:43.518Z,13.60
2019-04-20T09:23:58.022Z,13.23
2019-04-20T09:27:04.722Z,13.53
2019-04-20T09:30:09.176Z,11.93
2019-04-20T09:33:33.630Z,9.10
2019-04-20T09:36:45.792Z,8.83
2019-04-20T09:40:03.448Z,8.27
2019-04-20T09:42:56.770Z,7.57
2019-04-20T09:46:05.023Z,6.47
2019-04-20T09:49:18.648Z,6.10
2019-04-20T09:52:27.966Z,6.07
2019-04-20T09:55:32.872Z,5.13
2019-04-20T09:58:45.412Z,5.00
2019-04-20T10:01:40.163Z,5.00
2019-04-20T10:04:37.660Z,5.13
2019-04-20T10:07:42.598Z,4.90
2019-04-20T10:10:49.404Z,4.83
2019-04-20T10:13:54.424Z,3.80
2019-04-20T10:17:00.079Z,3.60
2019-04-20T10:20:10.813Z,3.97
2019-04-20T10:23:12.419Z,4.23
2019-04-20T10:26:16.986Z,4.33
2019-04-20T10:29:21.661Z,3.70
2019-04-20T10:32:34.756Z,4.07
2019-04-20T10:35:32.209Z,3.90
2019-04-20T10:38:40.222Z,3.80
2019-04-20T10:43:03.132Z,3.83
2019-04-20T10:46:31.572Z,3.67
2019-04-20T10:49:49.269Z,3.43
2019-04-20T10:53:01.684Z,3.50
2019-04-20T10:56:43.543Z,3.30
2019-04-20T10:59:49.725Z,3.47
2019-04-20T11:02:55.764Z,3.27
2019-04-20T11:06:00.668Z,3.00
2019-04-20T11:09:06.848Z,3.30
2019-04-20T11:12:12.449Z,3.37
2019-04-20T11:15:16.857Z,3.30
2019-04-20T11:18:21.751Z,3.47
2019-04-20T11:21:26.271Z,3.50
2019-04-20T11:24:32.189Z,4.10
2019-04-20T11:27:38.384Z,3.33
2019-04-20T11:30:43.856Z,3.17
2019-04-20T11:33:50.116Z,3.40
2019-04-20T11:36:55.081Z,2.70
2019-04-20T11:39:59.389Z,2.60
2019-04-20T11:43:03.925Z,3.10
2019-04-20T11:46:08.998Z,2.90
2019-04-20T11:49:13.532Z,2.80
2019-04-20T11:52:20.287Z,3.17
2019-04-20T11:55:24.339Z,3.47
2019-04-20T11:58:30.247Z,2.80
2019-04-20T12:02:09.814Z,2.87
2019-04-20T12:05:24.755Z,2.90
2019-04-20T12:08:22.852Z,2.97
2019-04-20T12:11:37.142Z,2.80
2019-04-20T12:14:34.555Z,3.00
2019-04-20T12:17:39.783Z,2.87
2019-04-20T12:20:44.974Z,2.60
2019-04-20T12:23:49.901Z,2.60
2019-04-20T12:26:54.628Z,2.70
2019-04-20T12:29:59.577Z,2.30
2019-04-20T12:33:05.595Z,2.10
2019-04-20T12:36:10.646Z,2.73
2019-04-20T12:39:15.101Z,2.00
2019-04-20T12:42:19.479Z,2.33
2019-04-20T12:45:25.843Z,2.43
2019-04-20T12:48:31.399Z,2.27
2019-04-20T12:51:47.464Z,2.30
2019-04-20T12:54:43.406Z,2.27
2019-04-20T12:57:47.577Z,2.30
2019-04-20T13:00:54.391Z,2.40
2019-04-20T13:04:00.374Z,2.67
2019-04-20T13:07:05.944Z,2.57
2019-04-20T13:10:11.552Z,2.40
2019-04-20T13:13:30.441Z,2.10
2019-04-20T13:16:38.537Z,2.20
2019-04-20T13:19:42.874Z,2.50
2019-04-20T13:22:47.178Z,2.27
2019-04-20T13:25:52.740Z,2.03
2019-04-20T13:28:57.273Z,2.03
2019-04-20T13:32:02.100Z,1.90
2019-04-20T13:35:07.980Z,1.80
2019-04-20T13:38:12.533Z,1.73
2019-04-20T13:41:17.855Z,2.03
2019-04-20T13:44:22.179Z,1.50
2019-04-20T13:47:28.184Z,2.20
2019-04-20T13:50:33.828Z,1.37
2019-04-20T13:53:39.288Z,1.67
2019-04-20T13:56:45.855Z,1.87
2019-04-20T13:59:54.137Z,1.60
2019-04-20T14:03:06.926Z,1.90
2019-04-20T14:06:11.339Z,2.07
2019-04-20T14:09:17.124Z,1.67
2019-04-20T14:12:28.394Z,1.83
2019-04-20T14:15:28.990Z,1.83
2019-04-20T14:18:33.736Z,1.93
2019-04-20T14:21:38.582Z,1.60
2019-04-20T14:24:43.057Z,2.00
2019-04-20T14:27:48.476Z,2.40
2019-04-20T14:30:54.173Z,1.93
2019-04-20T14:33:59.134Z,1.90
2019-04-20T14:37:04.778Z,2.07
2019-04-20T14:40:12.529Z,1.93
2019-04-20T14:43:17.290Z,1.83
2019-04-20T14:46:23.197Z,1.70
2019-04-20T14:49:28.539Z,1.63
2019-04-20T14:52:33.509Z,1.43
2019-04-20T14:55:39.565Z,1.50
2019-04-20T14:58:55.564Z,1.63
2019-04-20T15:02:10.373Z,1.50
2019-04-20T15:05:14.979Z,1.47
2019-04-20T15:08:21.183Z,1.00
2019-04-20T15:11:25.536Z,1.00
2019-04-20T15:14:29.865Z,1.40
2019-04-20T15:17:48.064Z,1.20
2019-04-20T15:20:55.552Z,1.40
2019-04-20T15:23:59.957Z,1.50
2019-04-20T15:27:04.864Z,1.30
2019-04-20T15:30:09.519Z,1.20
2019-04-20T15:33:14.888Z,1.47
2019-04-20T15:36:20.160Z,1.37
2019-04-20T15:39:27.246Z,1.50
2019-04-20T15:42:33.074Z,1.70
2019-04-20T15:45:39.079Z,2.07
2019-04-20T15:48:43.992Z,1.80
2019-04-20T15:51:49.965Z,2.03
2019-04-20T15:54:55.807Z,2.00
2019-04-20T15:58:05.117Z,2.13
2019-04-20T16:01:10.371Z,2.50
2019-04-20T16:04:37.557Z,2.57
2019-04-20T16:07:50.152Z,2.20
2019-04-20T16:10:45.973Z,2.30
2019-04-20T16:13:53.754Z,2.63
2019-04-20T16:16:56.440Z,2.40
2019-04-20T16:20:08.009Z,2.27
2019-04-20T16:23:07.048Z,2.57
2019-04-20T16:26:35.731Z,1.90
2019-04-20T16:29:41.746Z,2.10
2019-04-20T16:32:46.297Z,1.77
2019-04-20T16:35:52.348Z,2.13
2019-04-20T16:38:57.453Z,2.60
2019-04-20T16:42:08.954Z,2.40
2019-04-20T16:45:15.049Z,2.60
2019-04-20T16:48:22.085Z,2.33
2019-04-20T16:51:31.526Z,2.30
2019-04-20T16:54:37.655Z,2.50
2019-04-20T16:57:46.634Z,2.33
2019-04-20T17:00:55.812Z,2.93
2019-04-20T17:04:07.809Z,2.60
2019-04-20T17:07:25.057Z,2.63
2019-04-20T17:10:34.838Z,2.53
2019-04-20T17:13:49.703Z,3.60
2019-04-20T17:16:56.139Z,3.40
2019-04-20T17:20:02.054Z,3.00
2019-04-20T17:23:13.030Z,2.93
2019-04-20T17:26:43.430Z,3.20
2019-04-20T17:30:10.527Z,3.33
2019-04-20T17:33:19.512Z,2.83
2019-04-20T17:36:27.799Z,2.97
2019-04-20T17:39:45.512Z,3.13
2019-04-20T17:42:50.864Z,3.30
2019-04-20T17:45:54.346Z,3.30
2019-04-20T17:49:09.365Z,3.70
2019-04-20T17:52:26.467Z,3.60
2019-04-20T17:55:24.579Z,3.23
2019-04-20T17:58:23.225Z,3.40
2019-04-20T18:01:47.834Z,3.33
2019-04-20T18:05:17.589Z,3.60
2019-04-20T18:08:16.505Z,3.73
2019-04-20T18:11:09.154Z,4.00
2019-04-20T18:14:28.948Z,4.20
2019-04-20T18:18:07.150Z,4.07
2019-04-20T18:21:18.976Z,3.93
2019-04-20T18:24:51.014Z,4.43
2019-04-20T18:27:47.814Z,4.77
2019-04-20T18:30:55.783Z,4.07
2019-04-20T18:34:07.011Z,5.00
2019-04-20T18:37:12.030Z,4.40
2019-04-20T18:40:25.886Z,4.50
2019-04-20T18:43:23.818Z,4.40
2019-04-20T18:46:49.445Z,4.13
2019-04-20T18:49:43.187Z,4.50
2019-04-20T18:52:38.386Z,4.00
2019-04-20T18:55:52.746Z,3.77
2019-04-20T18:58:49.251Z,3.67
2019-04-20T19:01:54.993Z,3.77
2019-04-20T19:05:01.562Z,4.43
2019-04-20T19:08:10.535Z,4.40
2019-04-20T19:11:17.771Z,4.63
2019-04-20T19:14:34.650Z,4.50
2019-04-20T19:18:05.738Z,4.60
2019-04-20T19:21:01.527Z,4.27
2019-04-20T19:24:12.254Z,3.83
2019-04-20T19:27:16.089Z,5.53
2019-04-20T19:30:31.102Z,5.40
2019-04-20T19:33:46.394Z,4.57
2019-04-20T19:36:43.622Z,4.90
2019-04-20T19:39:54.687Z,4.30
2019-04-20T19:43:01.275Z,5.30
2019-04-20T19:46:35.578Z,4.87
2019-04-20T19:49:15.319Z,4.97
2019-04-20T19:52:46.310Z,5.77
2019-04-20T19:55:27.577Z,5.13
2019-04-20T19:58:30.321Z,5.73
2019-04-20T20:01:27.572Z,5.53
2019-04-20T20:04:40.393Z,5.33
2019-04-20T20:07:43.838Z,6.00
2019-04-20T20:10:45.886Z,5.60
2019-04-20T20:13:54.890Z,5.37
2019-04-20T20:17:14.256Z,5.97
2019-04-20T20:20:28.945Z,5.73
2019-04-20T20:23:10.165Z,5.50
2019-04-20T20:26:23.095Z,4.93
2019-04-20T20:29:33.212Z,6.37
2019-04-20T20:32:47.041Z,6.10
2019-04-20T20:35:49.307Z,6.77
2019-04-20T20:38:50.199Z,10.13
2019-04-20T20:42:01.686Z,11.43
2019-04-20T20:45:14.187Z,14.13
2019-04-20T20:48:25.701Z,26.00
2019-04-20T20:51:39.411Z,36.37
2019-04-20T20:54:33.571Z,40.17
2019-04-20T20:57:38.583Z,57.60
2019-04-20T21:00:43.291Z,56.77
2019-04-20T21:03:42.555Z,59.80
2019-04-20T21:06:44.654Z,59.40
2019-04-20T21:09:50.359Z,60.47
2019-04-20T21:12:59.176Z,63.80
2019-04-20T21:16:07.136Z,62.17
2019-04-20T21:19:21.162Z,63.80
2019-04-20T21:22:19.114Z,58.93
2019-04-20T21:25:33.262Z,62.10
2019-04-20T21:28:35.817Z,58.67
2019-04-20T21:31:43.424Z,56.40
2019-04-20T21:34:51.740Z,56.30
2019-04-20T21:38:00.477Z,50.60
2019-04-20T21:41:06.472Z,49.30
2019-04-20T21:44:12.990Z,48.17
2019-04-20T21:47:15.643Z,48.23
2019-04-20T21:50:34.956Z,43.77
2019-04-20T21:53:28.476Z,41.37
2019-04-20T21:56:30.192Z,38.00
2019-04-20T21:59:41.954Z,35.83
2019-04-20T22:02:48.363Z,32.93
2019-04-20T22:05:46.588Z,28.50
2019-04-20T22:08:56.737Z,28.03
2019-04-20T22:11:58.022Z,28.07
2019-04-20T22:15:08.145Z,23.67
2019-04-20T22:18:12.615Z,21.83
2019-04-20T22:21:22.624Z,21.83
2019-04-20T22:24:39.861Z,21.17
2019-04-20T22:27:31.981Z,20.13
2019-04-20T22:30:33.500Z,18.93
2019-04-20T22:33:41.143Z,17.47
2019-04-20T22:36:48.551Z,16.27
2019-04-20T22:39:55.869Z,15.87
2019-04-20T22:43:00.096Z,15.47
2019-04-20T22:46:03.683Z,14.83
2019-04-20T22:49:28.367Z,13.90
2019-04-20T22:52:29.153Z,13.90
2019-04-20T22:55:42.853Z,12.83
2019-04-20T22:58:40.606Z,13.00
2019-04-20T23:01:39.382Z,11.60
2019-04-20T23:04:38.937Z,12.20
2019-04-20T23:07:44.373Z,11.80
2019-04-20T23:10:49.798Z,11.30
2019-04-20T23:13:54.179Z,11.67
2019-04-20T23:16:59.726Z,11.63
2019-04-20T23:20:13.240Z,10.30
2019-04-20T23:23:12.410Z,9.87
2019-04-20T23:26:23.843Z,9.80
2019-04-20T23:29:29.543Z,9.53
2019-04-20T23:32:30.061Z,9.10
2019-04-20T23:35:38.543Z,9.57
2019-04-20T23:38:44.230Z,9.67
2019-04-20T23:41:55.647Z,9.80
2019-04-20T23:45:02.229Z,9.70
2019-04-20T23:48:14.175Z,9.53
2019-04-20T23:51:46.214Z,8.80
2019-04-20T23:54:29.329Z,8.10
2019-04-20T23:57:31.644Z,9.73
